sensor_id;sensor_type;location;lat;lon;timestamp;P1;durP1;ratioP1;P2;durP2;ratioP2
77864;SDS011;67061;48.524;9.040;2023-04-06T00:00:33;11.88;;;7.75;;
77864;SDS011;67061;48.524;9.040;2023-04-06T00:03:00;12.38;;;8.25;;
77864;SDS011;67061;48.524;9.040;2023-04-06T00:05:27;11.00;;;7.25;;
77864;SDS011;67061;48.524;9.040;2023-04-06T00:07:57;11.35;;;7.72;;
77864;SDS011;67061;48.524;9.040;2023-04-06T00:10:24;10.43;;;7.68;;
77864;SDS011;67061;48.524;9.040;2023-04-06T00:12:51;11.25;;;7.78;;
77864;SDS011;67061;48.524;9.040;2023-04-06T00:15:20;13.23;;;7.95;;
77864;SDS011;67061;48.524;9.040;2023-04-06T00:17:47;10.40;;;7.40;;
77864;SDS011;67061;48.524;9.040;2023-04-06T00:20:14;12.60;;;8.13;;
77864;SDS011;67061;48.524;9.040;2023-04-06T00:22:41;13.02;;;7.70;;
77864;SDS011;67061;48.524;9.040;2023-04-06T00:25:09;13.57;;;8.43;;
77864;SDS011;67061;48.524;9.040;2023-04-06T00:27:36;12.85;;;8.43;;
77864;SDS011;67061;48.524;9.040;2023-04-06T00:30:04;10.70;;;7.55;;
77864;SDS011;67061;48.524;9.040;2023-04-06T00:32:33;12.02;;;8.95;;
77864;SDS011;67061;48.524;9.040;2023-04-06T00:35:01;10.48;;;7.03;;
77864;SDS011;67061;48.524;9.040;2023-04-06T00:37:28;11.02;;;7.50;;
77864;SDS011;67061;48.524;9.040;2023-04-06T00:39:55;12.32;;;7.82;;
77864;SDS011;67061;48.524;9.040;2023-04-06T00:42:22;10.50;;;7.10;;
77864;SDS011;67061;48.524;9.040;2023-04-06T00:44:52;11.20;;;7.72;;
77864;SDS011;67061;48.524;9.040;2023-04-06T00:47:19;11.63;;;7.85;;
77864;SDS011;67061;48.524;9.040;2023-04-06T00:49:48;11.02;;;7.40;;
77864;SDS011;67061;48.524;9.040;2023-04-06T00:52:15;12.07;;;8.23;;
77864;SDS011;67061;48.524;9.040;2023-04-06T00:54:42;11.32;;;7.40;;
77864;SDS011;67061;48.524;9.040;2023-04-06T00:57:10;11.80;;;7.32;;
77864;SDS011;67061;48.524;9.040;2023-04-06T00:59:37;11.60;;;7.15;;
77864;SDS011;67061;48.524;9.040;2023-04-06T01:02:05;10.32;;;7.18;;
77864;SDS011;67061;48.524;9.040;2023-04-06T01:04:32;11.10;;;7.68;;
77864;SDS011;67061;48.524;9.040;2023-04-06T01:07:01;14.27;;;9.07;;
77864;SDS011;67061;48.524;9.040;2023-04-06T01:09:28;11.30;;;7.45;;
77864;SDS011;67061;48.524;9.040;2023-04-06T01:11:56;11.77;;;6.40;;
77864;SDS011;67061;48.524;9.040;2023-04-06T01:14:23;11.85;;;8.00;;
77864;SDS011;67061;48.524;9.040;2023-04-06T01:16:50;12.23;;;8.30;;
77864;SDS011;67061;48.524;9.040;2023-04-06T01:19:18;13.40;;;7.78;;
77864;SDS011;67061;48.524;9.040;2023-04-06T01:21:46;13.18;;;8.98;;
77864;SDS011;67061;48.524;9.040;2023-04-06T01:24:16;12.60;;;7.85;;
77864;SDS011;67061;48.524;9.040;2023-04-06T01:26:43;15.25;;;8.07;;
77864;SDS011;67061;48.524;9.040;2023-04-06T01:29:10;12.48;;;6.47;;
77864;SDS011;67061;48.524;9.040;2023-04-06T01:31:37;11.40;;;7.47;;
77864;SDS011;67061;48.524;9.040;2023-04-06T01:34:05;12.57;;;8.20;;
77864;SDS011;67061;48.524;9.040;2023-04-06T01:36:32;12.13;;;8.20;;
77864;SDS011;67061;48.524;9.040;2023-04-06T01:38:59;11.55;;;8.43;;
77864;SDS011;67061;48.524;9.040;2023-04-06T01:41:28;11.95;;;7.63;;
77864;SDS011;67061;48.524;9.040;2023-04-06T01:43:55;12.85;;;8.13;;
77864;SDS011;67061;48.524;9.040;2023-04-06T01:46:22;12.77;;;8.40;;
77864;SDS011;67061;48.524;9.040;2023-04-06T01:48:49;13.25;;;8.15;;
77864;SDS011;67061;48.524;9.040;2023-04-06T01:51:16;13.65;;;7.80;;
77864;SDS011;67061;48.524;9.040;2023-04-06T01:53:43;11.68;;;7.72;;
77864;SDS011;67061;48.524;9.040;2023-04-06T01:56:10;12.48;;;7.72;;
77864;SDS011;67061;48.524;9.040;2023-04-06T01:58:38;13.75;;;9.20;;
77864;SDS011;67061;48.524;9.040;2023-04-06T02:01:05;14.77;;;8.77;;
77864;SDS011;67061;48.524;9.040;2023-04-06T02:03:32;14.13;;;8.55;;
77864;SDS011;67061;48.524;9.040;2023-04-06T02:05:59;14.57;;;8.23;;
77864;SDS011;67061;48.524;9.040;2023-04-06T02:08:26;14.52;;;9.07;;
77864;SDS011;67061;48.524;9.040;2023-04-06T02:10:53;17.48;;;9.18;;
77864;SDS011;67061;48.524;9.040;2023-04-06T02:13:20;15.02;;;9.38;;
77864;SDS011;67061;48.524;9.040;2023-04-06T02:15:48;14.45;;;9.05;;
77864;SDS011;67061;48.524;9.040;2023-04-06T02:18:16;13.82;;;8.80;;
77864;SDS011;67061;48.524;9.040;2023-04-06T02:20:43;13.27;;;8.50;;
77864;SDS011;67061;48.524;9.040;2023-04-06T02:23:10;15.55;;;9.13;;
77864;SDS011;67061;48.524;9.040;2023-04-06T02:25:37;14.50;;;9.45;;
77864;SDS011;67061;48.524;9.040;2023-04-06T02:28:05;13.88;;;8.63;;
77864;SDS011;67061;48.524;9.040;2023-04-06T02:30:32;16.23;;;10.27;;
77864;SDS011;67061;48.524;9.040;2023-04-06T02:33:00;16.88;;;10.70;;
77864;SDS011;67061;48.524;9.040;2023-04-06T02:35:28;13.38;;;8.50;;
77864;SDS011;67061;48.524;9.040;2023-04-06T02:37:55;15.60;;;9.52;;
77864;SDS011;67061;48.524;9.040;2023-04-06T02:40:22;14.18;;;8.93;;
77864;SDS011;67061;48.524;9.040;2023-04-06T02:42:49;13.18;;;9.02;;
77864;SDS011;67061;48.524;9.040;2023-04-06T02:45:16;13.68;;;8.95;;
77864;SDS011;67061;48.524;9.040;2023-04-06T02:47:44;16.92;;;10.43;;
77864;SDS011;67061;48.524;9.040;2023-04-06T02:50:13;13.80;;;9.98;;
77864;SDS011;67061;48.524;9.040;2023-04-06T02:52:40;15.10;;;10.70;;
77864;SDS011;67061;48.524;9.040;2023-04-06T02:55:08;14.35;;;9.80;;
77864;SDS011;67061;48.524;9.040;2023-04-06T02:57:35;15.60;;;10.25;;
77864;SDS011;67061;48.524;9.040;2023-04-06T03:00:02;15.57;;;9.48;;
77864;SDS011;67061;48.524;9.040;2023-04-06T03:02:30;16.15;;;9.70;;
77864;SDS011;67061;48.524;9.040;2023-04-06T03:04:57;15.10;;;9.23;;
77864;SDS011;67061;48.524;9.040;2023-04-06T03:07:25;15.40;;;9.70;;
77864;SDS011;67061;48.524;9.040;2023-04-06T03:09:52;16.58;;;10.40;;
77864;SDS011;67061;48.524;9.040;2023-04-06T03:12:19;16.55;;;9.95;;
77864;SDS011;67061;48.524;9.040;2023-04-06T03:14:47;15.02;;;9.45;;
77864;SDS011;67061;48.524;9.040;2023-04-06T03:17:14;14.60;;;9.25;;
77864;SDS011;67061;48.524;9.040;2023-04-06T03:19:41;14.52;;;9.57;;
77864;SDS011;67061;48.524;9.040;2023-04-06T03:22:08;17.58;;;9.40;;
77864;SDS011;67061;48.524;9.040;2023-04-06T03:24:36;17.00;;;10.45;;
77864;SDS011;67061;48.524;9.040;2023-04-06T03:27:03;15.32;;;8.98;;
77864;SDS011;67061;48.524;9.040;2023-04-06T03:29:31;16.13;;;9.25;;
77864;SDS011;67061;48.524;9.040;2023-04-06T03:31:58;16.60;;;9.90;;
77864;SDS011;67061;48.524;9.040;2023-04-06T03:34:25;14.40;;;9.25;;
77864;SDS011;67061;48.524;9.040;2023-04-06T03:36:52;16.75;;;9.98;;
77864;SDS011;67061;48.524;9.040;2023-04-06T03:39:19;14.82;;;8.60;;
77864;SDS011;67061;48.524;9.040;2023-04-06T03:41:47;15.15;;;9.27;;
77864;SDS011;67061;48.524;9.040;2023-04-06T03:44:14;13.73;;;7.53;;
77864;SDS011;67061;48.524;9.040;2023-04-06T03:46:41;15.48;;;9.73;;
77864;SDS011;67061;48.524;9.040;2023-04-06T03:49:08;15.32;;;9.23;;
77864;SDS011;67061;48.524;9.040;2023-04-06T03:51:35;15.60;;;10.23;;
77864;SDS011;67061;48.524;9.040;2023-04-06T03:54:03;14.43;;;8.60;;
77864;SDS011;67061;48.524;9.040;2023-04-06T03:56:30;13.07;;;7.40;;
77864;SDS011;67061;48.524;9.040;2023-04-06T03:58:58;16.58;;;9.25;;
77864;SDS011;67061;48.524;9.040;2023-04-06T04:01:26;13.70;;;8.75;;
77864;SDS011;67061;48.524;9.040;2023-04-06T04:03:53;16.88;;;10.68;;
77864;SDS011;67061;48.524;9.040;2023-04-06T04:06:20;15.82;;;11.00;;
77864;SDS011;67061;48.524;9.040;2023-04-06T04:08:48;16.83;;;9.00;;
77864;SDS011;67061;48.524;9.040;2023-04-06T04:11:15;15.10;;;9.80;;
77864;SDS011;67061;48.524;9.040;2023-04-06T04:13:42;15.50;;;9.18;;
77864;SDS011;67061;48.524;9.040;2023-04-06T04:16:10;17.27;;;12.88;;
77864;SDS011;67061;48.524;9.040;2023-04-06T04:18:37;15.18;;;9.93;;
77864;SDS011;67061;48.524;9.040;2023-04-06T04:21:04;14.48;;;9.00;;
77864;SDS011;67061;48.524;9.040;2023-04-06T04:23:31;18.65;;;9.88;;
77864;SDS011;67061;48.524;9.040;2023-04-06T04:25:58;15.38;;;9.60;;
77864;SDS011;67061;48.524;9.040;2023-04-06T04:28:25;14.48;;;9.63;;
77864;SDS011;67061;48.524;9.040;2023-04-06T04:30:52;16.60;;;10.63;;
77864;SDS011;67061;48.524;9.040;2023-04-06T04:33:20;21.20;;;12.07;;
77864;SDS011;67061;48.524;9.040;2023-04-06T04:35:48;21.30;;;11.52;;
77864;SDS011;67061;48.524;9.040;2023-04-06T04:38:14;22.17;;;12.82;;
77864;SDS011;67061;48.524;9.040;2023-04-06T04:40:41;26.00;;;15.45;;
77864;SDS011;67061;48.524;9.040;2023-04-06T04:43:08;22.70;;;15.07;;
77864;SDS011;67061;48.524;9.040;2023-04-06T04:45:35;22.00;;;12.88;;
77864;SDS011;67061;48.524;9.040;2023-04-06T04:48:02;19.40;;;11.00;;
77864;SDS011;67061;48.524;9.040;2023-04-06T04:50:32;20.23;;;12.07;;
77864;SDS011;67061;48.524;9.040;2023-04-06T04:52:59;20.88;;;12.05;;
77864;SDS011;67061;48.524;9.040;2023-04-06T04:55:27;16.65;;;11.65;;
77864;SDS011;67061;48.524;9.040;2023-04-06T04:57:54;19.85;;;11.15;;
77864;SDS011;67061;48.524;9.040;2023-04-06T05:00:21;17.77;;;9.18;;
77864;SDS011;67061;48.524;9.040;2023-04-06T05:02:48;13.65;;;8.88;;
77864;SDS011;67061;48.524;9.040;2023-04-06T05:05:15;15.93;;;7.40;;
77864;SDS011;67061;48.524;9.040;2023-04-06T05:07:43;13.45;;;8.35;;
77864;SDS011;67061;48.524;9.040;2023-04-06T05:10:10;15.25;;;10.07;;
77864;SDS011;67061;48.524;9.040;2023-04-06T05:12:37;14.40;;;9.20;;
77864;SDS011;67061;48.524;9.040;2023-04-06T05:15:05;17.77;;;9.50;;
77864;SDS011;67061;48.524;9.040;2023-04-06T05:17:33;16.02;;;9.43;;
77864;SDS011;67061;48.524;9.040;2023-04-06T05:20:00;19.67;;;10.82;;
77864;SDS011;67061;48.524;9.040;2023-04-06T05:22:27;17.05;;;9.38;;
77864;SDS011;67061;48.524;9.040;2023-04-06T05:24:56;17.42;;;9.02;;
77864;SDS011;67061;48.524;9.040;2023-04-06T05:27:22;18.35;;;11.23;;
77864;SDS011;67061;48.524;9.040;2023-04-06T05:29:50;15.73;;;9.80;;
77864;SDS011;67061;48.524;9.040;2023-04-06T05:32:17;13.45;;;9.43;;
77864;SDS011;67061;48.524;9.040;2023-04-06T05:34:47;16.92;;;11.77;;
77864;SDS011;67061;48.524;9.040;2023-04-06T05:37:14;14.00;;;9.10;;
77864;SDS011;67061;48.524;9.040;2023-04-06T05:39:42;15.00;;;9.57;;
77864;SDS011;67061;48.524;9.040;2023-04-06T05:42:10;14.93;;;9.98;;
77864;SDS011;67061;48.524;9.040;2023-04-06T05:44:37;14.20;;;9.48;;
77864;SDS011;67061;48.524;9.040;2023-04-06T05:47:04;14.60;;;9.57;;
77864;SDS011;67061;48.524;9.040;2023-04-06T05:49:31;16.38;;;10.10;;
77864;SDS011;67061;48.524;9.040;2023-04-06T05:51:58;15.65;;;10.25;;
77864;SDS011;67061;48.524;9.040;2023-04-06T05:54:25;15.65;;;9.68;;
77864;SDS011;67061;48.524;9.040;2023-04-06T05:56:53;16.52;;;9.48;;
77864;SDS011;67061;48.524;9.040;2023-04-06T05:59:21;14.35;;;7.63;;
77864;SDS011;67061;48.524;9.040;2023-04-06T06:01:48;16.92;;;10.18;;
77864;SDS011;67061;48.524;9.040;2023-04-06T06:04:15;15.20;;;9.68;;
77864;SDS011;67061;48.524;9.040;2023-04-06T06:06:42;19.40;;;11.85;;
77864;SDS011;67061;48.524;9.040;2023-04-06T06:09:09;18.13;;;11.90;;
77864;SDS011;67061;48.524;9.040;2023-04-06T06:11:36;19.05;;;14.00;;
77864;SDS011;67061;48.524;9.040;2023-04-06T06:14:03;15.20;;;8.90;;
77864;SDS011;67061;48.524;9.040;2023-04-06T06:16:32;14.90;;;10.18;;
77864;SDS011;67061;48.524;9.040;2023-04-06T06:18:59;15.05;;;9.52;;
77864;SDS011;67061;48.524;9.040;2023-04-06T06:21:26;13.73;;;9.45;;
77864;SDS011;67061;48.524;9.040;2023-04-06T06:23:53;13.65;;;9.48;;
77864;SDS011;67061;48.524;9.040;2023-04-06T06:26:20;13.70;;;8.98;;
77864;SDS011;67061;48.524;9.040;2023-04-06T06:28:48;16.67;;;9.98;;
77864;SDS011;67061;48.524;9.040;2023-04-06T06:31:15;15.52;;;9.15;;
77864;SDS011;67061;48.524;9.040;2023-04-06T06:33:44;15.23;;;9.70;;
77864;SDS011;67061;48.524;9.040;2023-04-06T06:36:15;16.95;;;8.75;;
77864;SDS011;67061;48.524;9.040;2023-04-06T06:38:42;13.98;;;9.65;;
77864;SDS011;67061;48.524;9.040;2023-04-06T06:41:09;16.33;;;10.57;;
77864;SDS011;67061;48.524;9.040;2023-04-06T06:43:36;14.70;;;10.88;;
77864;SDS011;67061;48.524;9.040;2023-04-06T06:46:03;15.80;;;10.07;;
77864;SDS011;67061;48.524;9.040;2023-04-06T06:48:31;15.95;;;10.57;;
77864;SDS011;67061;48.524;9.040;2023-04-06T06:50:59;16.52;;;10.38;;
77864;SDS011;67061;48.524;9.040;2023-04-06T06:53:27;16.90;;;10.63;;
77864;SDS011;67061;48.524;9.040;2023-04-06T06:55:54;13.90;;;10.00;;
77864;SDS011;67061;48.524;9.040;2023-04-06T06:58:21;15.10;;;10.13;;
77864;SDS011;67061;48.524;9.040;2023-04-06T07:00:48;13.55;;;9.93;;
77864;SDS011;67061;48.524;9.040;2023-04-06T07:03:15;15.02;;;10.55;;
77864;SDS011;67061;48.524;9.040;2023-04-06T07:05:45;15.18;;;10.00;;
77864;SDS011;67061;48.524;9.040;2023-04-06T07:08:19;15.68;;;10.02;;
77864;SDS011;67061;48.524;9.040;2023-04-06T07:10:46;14.82;;;9.20;;
77864;SDS011;67061;48.524;9.040;2023-04-06T07:13:13;15.55;;;9.82;;
77864;SDS011;67061;48.524;9.040;2023-04-06T07:15:44;16.75;;;10.20;;
77864;SDS011;67061;48.524;9.040;2023-04-06T07:18:11;13.95;;;10.75;;
77864;SDS011;67061;48.524;9.040;2023-04-06T07:20:38;17.05;;;10.68;;
77864;SDS011;67061;48.524;9.040;2023-04-06T07:23:05;14.00;;;10.23;;
77864;SDS011;67061;48.524;9.040;2023-04-06T07:25:33;16.50;;;11.00;;
77864;SDS011;67061;48.524;9.040;2023-04-06T07:28:01;17.05;;;11.00;;
77864;SDS011;67061;48.524;9.040;2023-04-06T07:30:28;16.00;;;10.05;;
77864;SDS011;67061;48.524;9.040;2023-04-06T07:32:55;15.63;;;11.63;;
77864;SDS011;67061;48.524;9.040;2023-04-06T07:35:24;15.50;;;10.65;;
77864;SDS011;67061;48.524;9.040;2023-04-06T07:37:52;13.82;;;11.07;;
77864;SDS011;67061;48.524;9.040;2023-04-06T07:40:19;17.33;;;10.93;;
77864;SDS011;67061;48.524;9.040;2023-04-06T07:42:48;13.93;;;9.48;;
77864;SDS011;67061;48.524;9.040;2023-04-06T07:45:15;17.33;;;10.45;;
77864;SDS011;67061;48.524;9.040;2023-04-06T07:47:43;14.85;;;11.00;;
77864;SDS011;67061;48.524;9.040;2023-04-06T07:50:10;15.30;;;10.63;;
77864;SDS011;67061;48.524;9.040;2023-04-06T07:52:38;15.82;;;10.18;;
77864;SDS011;67061;48.524;9.040;2023-04-06T07:55:05;15.45;;;10.32;;
77864;SDS011;67061;48.524;9.040;2023-04-06T07:57:32;16.02;;;10.48;;
77864;SDS011;67061;48.524;9.040;2023-04-06T08:00:01;13.68;;;9.48;;
77864;SDS011;67061;48.524;9.040;2023-04-06T08:02:29;15.10;;;9.60;;
77864;SDS011;67061;48.524;9.040;2023-04-06T08:04:57;14.77;;;10.52;;
77864;SDS011;67061;48.524;9.040;2023-04-06T08:07:24;15.38;;;10.52;;
77864;SDS011;67061;48.524;9.040;2023-04-06T08:09:52;15.63;;;11.10;;
77864;SDS011;67061;48.524;9.040;2023-04-06T08:12:19;15.15;;;9.60;;
77864;SDS011;67061;48.524;9.040;2023-04-06T08:14:46;14.63;;;11.07;;
77864;SDS011;67061;48.524;9.040;2023-04-06T08:17:15;17.58;;;11.20;;
77864;SDS011;67061;48.524;9.040;2023-04-06T08:19:42;13.65;;;10.30;;
77864;SDS011;67061;48.524;9.040;2023-04-06T08:22:10;13.80;;;10.20;;
77864;SDS011;67061;48.524;9.040;2023-04-06T08:24:37;14.43;;;10.88;;
77864;SDS011;67061;48.524;9.040;2023-04-06T08:27:04;14.30;;;10.27;;
77864;SDS011;67061;48.524;9.040;2023-04-06T08:29:31;14.20;;;8.00;;
77864;SDS011;67061;48.524;9.040;2023-04-06T08:31:58;14.13;;;10.50;;
77864;SDS011;67061;48.524;9.040;2023-04-06T08:34:26;13.63;;;10.15;;
77864;SDS011;67061;48.524;9.040;2023-04-06T08:36:53;14.68;;;9.73;;
77864;SDS011;67061;48.524;9.040;2023-04-06T08:39:20;13.80;;;9.93;;
77864;SDS011;67061;48.524;9.040;2023-04-06T08:41:50;13.90;;;10.18;;
77864;SDS011;67061;48.524;9.040;2023-04-06T08:44:18;13.73;;;9.48;;
77864;SDS011;67061;48.524;9.040;2023-04-06T08:46:45;15.43;;;9.48;;
77864;SDS011;67061;48.524;9.040;2023-04-06T08:49:12;11.95;;;9.45;;
77864;SDS011;67061;48.524;9.040;2023-04-06T08:51:43;13.50;;;10.55;;
77864;SDS011;67061;48.524;9.040;2023-04-06T08:54:11;13.32;;;10.65;;
77864;SDS011;67061;48.524;9.040;2023-04-06T08:56:38;14.27;;;10.52;;
77864;SDS011;67061;48.524;9.040;2023-04-06T08:59:06;13.68;;;9.98;;
77864;SDS011;67061;48.524;9.040;2023-04-06T09:01:33;13.15;;;9.77;;
77864;SDS011;67061;48.524;9.040;2023-04-06T09:04:05;12.27;;;9.45;;
77864;SDS011;67061;48.524;9.040;2023-04-06T09:06:35;14.20;;;10.77;;
77864;SDS011;67061;48.524;9.040;2023-04-06T09:09:07;15.73;;;9.98;;
77864;SDS011;67061;48.524;9.040;2023-04-06T09:11:42;14.02;;;9.82;;
77864;SDS011;67061;48.524;9.040;2023-04-06T09:14:12;12.18;;;9.00;;
77864;SDS011;67061;48.524;9.040;2023-04-06T09:16:40;14.38;;;10.07;;
77864;SDS011;67061;48.524;9.040;2023-04-06T09:19:08;12.23;;;9.05;;
77864;SDS011;67061;48.524;9.040;2023-04-06T09:21:36;14.70;;;9.90;;
77864;SDS011;67061;48.524;9.040;2023-04-06T09:24:06;13.13;;;8.80;;
77864;SDS011;67061;48.524;9.040;2023-04-06T09:29:21;14.00;;;8.50;;
77864;SDS011;67061;48.524;9.040;2023-04-06T09:31:51;12.35;;;8.82;;
77864;SDS011;67061;48.524;9.040;2023-04-06T09:34:21;12.65;;;9.75;;
77864;SDS011;67061;48.524;9.040;2023-04-06T09:36:49;14.13;;;10.57;;
77864;SDS011;67061;48.524;9.040;2023-04-06T09:39:19;14.57;;;9.18;;
77864;SDS011;67061;48.524;9.040;2023-04-06T09:41:49;12.07;;;9.02;;
77864;SDS011;67061;48.524;9.040;2023-04-06T09:44:17;11.65;;;6.43;;
77864;SDS011;67061;48.524;9.040;2023-04-06T09:46:45;11.48;;;8.20;;
77864;SDS011;67061;48.524;9.040;2023-04-06T09:49:12;12.07;;;8.75;;
77864;SDS011;67061;48.524;9.040;2023-04-06T09:51:40;11.30;;;8.45;;
77864;SDS011;67061;48.524;9.040;2023-04-06T09:54:11;11.88;;;8.90;;
77864;SDS011;67061;48.524;9.040;2023-04-06T09:56:45;13.77;;;8.88;;
77864;SDS011;67061;48.524;9.040;2023-04-06T09:59:13;13.55;;;9.20;;
77864;SDS011;67061;48.524;9.040;2023-04-06T10:01:44;11.70;;;7.78;;
77864;SDS011;67061;48.524;9.040;2023-04-06T10:04:17;13.80;;;8.52;;
77864;SDS011;67061;48.524;9.040;2023-04-06T10:06:53;8.32;;;6.35;;
77864;SDS011;67061;48.524;9.040;2023-04-06T10:09:22;9.25;;;6.88;;
77864;SDS011;67061;48.524;9.040;2023-04-06T10:11:55;7.25;;;5.53;;
77864;SDS011;67061;48.524;9.040;2023-04-06T10:14:25;7.93;;;5.75;;
77864;SDS011;67061;48.524;9.040;2023-04-06T10:16:52;8.55;;;5.82;;
77864;SDS011;67061;48.524;9.040;2023-04-06T10:19:21;8.13;;;5.35;;
77864;SDS011;67061;48.524;9.040;2023-04-06T10:21:53;7.38;;;5.15;;
77864;SDS011;67061;48.524;9.040;2023-04-06T10:24:23;7.78;;;5.57;;
77864;SDS011;67061;48.524;9.040;2023-04-06T10:27:02;8.30;;;6.50;;
77864;SDS011;67061;48.524;9.040;2023-04-06T10:29:41;10.05;;;6.15;;
77864;SDS011;67061;48.524;9.040;2023-04-06T10:32:10;9.75;;;6.60;;
77864;SDS011;67061;48.524;9.040;2023-04-06T10:34:37;8.00;;;6.22;;
77864;SDS011;67061;48.524;9.040;2023-04-06T10:37:11;8.93;;;6.53;;
77864;SDS011;67061;48.524;9.040;2023-04-06T10:39:45;9.40;;;7.50;;
77864;SDS011;67061;48.524;9.040;2023-04-06T10:42:14;12.75;;;8.40;;
77864;SDS011;67061;48.524;9.040;2023-04-06T10:44:42;9.32;;;7.45;;
77864;SDS011;67061;48.524;9.040;2023-04-06T10:47:15;9.50;;;6.97;;
77864;SDS011;67061;48.524;9.040;2023-04-06T10:49:43;9.80;;;7.60;;
77864;SDS011;67061;48.524;9.040;2023-04-06T10:52:11;10.32;;;8.02;;
77864;SDS011;67061;48.524;9.040;2023-04-06T10:54:40;9.20;;;7.38;;
77864;SDS011;67061;48.524;9.040;2023-04-06T10:57:09;10.68;;;7.25;;
77864;SDS011;67061;48.524;9.040;2023-04-06T10:59:41;7.18;;;5.97;;
77864;SDS011;67061;48.524;9.040;2023-04-06T11:02:08;9.18;;;6.53;;
77864;SDS011;67061;48.524;9.040;2023-04-06T11:04:53;7.90;;;5.40;;
77864;SDS011;67061;48.524;9.040;2023-04-06T11:07:22;6.88;;;5.70;;
77864;SDS011;67061;48.524;9.040;2023-04-06T11:09:50;7.65;;;4.93;;
77864;SDS011;67061;48.524;9.040;2023-04-06T11:12:20;6.43;;;3.40;;
77864;SDS011;67061;48.524;9.040;2023-04-06T11:14:56;5.78;;;4.07;;
77864;SDS011;67061;48.524;9.040;2023-04-06T11:17:29;6.97;;;3.88;;
77864;SDS011;67061;48.524;9.040;2023-04-06T11:19:57;7.60;;;4.45;;
77864;SDS011;67061;48.524;9.040;2023-04-06T11:22:24;7.72;;;5.03;;
77864;SDS011;67061;48.524;9.040;2023-04-06T11:24:51;5.35;;;3.97;;
77864;SDS011;67061;48.524;9.040;2023-04-06T11:27:19;6.50;;;4.53;;
77864;SDS011;67061;48.524;9.040;2023-04-06T11:29:47;7.18;;;5.13;;
77864;SDS011;67061;48.524;9.040;2023-04-06T11:32:21;6.90;;;5.10;;
77864;SDS011;67061;48.524;9.040;2023-04-06T11:34:49;5.53;;;4.65;;
77864;SDS011;67061;48.524;9.040;2023-04-06T11:37:16;7.47;;;4.82;;
77864;SDS011;67061;48.524;9.040;2023-04-06T11:39:46;6.60;;;4.82;;
77864;SDS011;67061;48.524;9.040;2023-04-06T11:42:21;6.85;;;5.35;;
77864;SDS011;67061;48.524;9.040;2023-04-06T11:44:51;6.40;;;3.75;;
77864;SDS011;67061;48.524;9.040;2023-04-06T11:47:27;5.90;;;5.18;;
77864;SDS011;67061;48.524;9.040;2023-04-06T11:49:54;5.68;;;4.47;;
77864;SDS011;67061;48.524;9.040;2023-04-06T11:52:22;5.65;;;4.68;;
77864;SDS011;67061;48.524;9.040;2023-04-06T11:54:50;6.13;;;4.65;;
77864;SDS011;67061;48.524;9.040;2023-04-06T11:57:18;6.20;;;4.75;;
77864;SDS011;67061;48.524;9.040;2023-04-06T11:59:46;7.53;;;5.28;;
77864;SDS011;67061;48.524;9.040;2023-04-06T12:02:13;6.97;;;5.53;;
77864;SDS011;67061;48.524;9.040;2023-04-06T12:04:42;7.22;;;3.97;;
77864;SDS011;67061;48.524;9.040;2023-04-06T12:07:09;6.70;;;5.22;;
77864;SDS011;67061;48.524;9.040;2023-04-06T12:09:36;7.10;;;5.35;;
77864;SDS011;67061;48.524;9.040;2023-04-06T12:12:03;7.22;;;4.55;;
77864;SDS011;67061;48.524;9.040;2023-04-06T12:14:30;6.70;;;5.00;;
77864;SDS011;67061;48.524;9.040;2023-04-06T12:16:57;6.63;;;5.25;;
77864;SDS011;67061;48.524;9.040;2023-04-06T12:19:25;6.32;;;5.18;;
77864;SDS011;67061;48.524;9.040;2023-04-06T12:21:54;7.55;;;5.50;;
77864;SDS011;67061;48.524;9.040;2023-04-06T12:24:21;6.68;;;4.88;;
77864;SDS011;67061;48.524;9.040;2023-04-06T12:26:48;4.85;;;3.95;;
77864;SDS011;67061;48.524;9.040;2023-04-06T12:29:16;6.00;;;4.82;;
77864;SDS011;67061;48.524;9.040;2023-04-06T12:31:43;7.22;;;4.65;;
77864;SDS011;67061;48.524;9.040;2023-04-06T12:34:10;6.93;;;3.53;;
77864;SDS011;67061;48.524;9.040;2023-04-06T12:36:37;7.43;;;5.38;;
77864;SDS011;67061;48.524;9.040;2023-04-06T12:39:06;6.32;;;4.88;;
77864;SDS011;67061;48.524;9.040;2023-04-06T12:41:33;5.57;;;4.60;;
77864;SDS011;67061;48.524;9.040;2023-04-06T12:44:00;5.72;;;4.18;;
77864;SDS011;67061;48.524;9.040;2023-04-06T12:46:28;6.60;;;4.38;;
77864;SDS011;67061;48.524;9.040;2023-04-06T12:48:56;5.18;;;4.53;;
77864;SDS011;67061;48.524;9.040;2023-04-06T12:51:24;5.50;;;4.90;;
77864;SDS011;67061;48.524;9.040;2023-04-06T12:53:52;6.00;;;3.55;;
77864;SDS011;67061;48.524;9.040;2023-04-06T12:56:20;6.75;;;4.47;;
77864;SDS011;67061;48.524;9.040;2023-04-06T13:01:14;6.03;;;5.10;;
77864;SDS011;67061;48.524;9.040;2023-04-06T13:03:42;6.15;;;4.78;;
77864;SDS011;67061;48.524;9.040;2023-04-06T13:06:09;5.22;;;4.35;;
77864;SDS011;67061;48.524;9.040;2023-04-06T13:11:05;5.60;;;4.20;;
77864;SDS011;67061;48.524;9.040;2023-04-06T13:13:34;5.55;;;4.40;;
77864;SDS011;67061;48.524;9.040;2023-04-06T13:16:02;5.25;;;4.63;;
77864;SDS011;67061;48.524;9.040;2023-04-06T13:18:31;6.05;;;4.25;;
77864;SDS011;67061;48.524;9.040;2023-04-06T13:20:59;6.38;;;4.72;;
77864;SDS011;67061;48.524;9.040;2023-04-06T13:23:26;5.03;;;4.10;;
77864;SDS011;67061;48.524;9.040;2023-04-06T13:25:56;6.68;;;5.10;;
77864;SDS011;67061;48.524;9.040;2023-04-06T13:28:26;6.53;;;5.10;;
77864;SDS011;67061;48.524;9.040;2023-04-06T13:30:55;5.65;;;4.97;;
77864;SDS011;67061;48.524;9.040;2023-04-06T13:33:24;5.95;;;4.45;;
77864;SDS011;67061;48.524;9.040;2023-04-06T13:35:51;5.35;;;4.57;;
77864;SDS011;67061;48.524;9.040;2023-04-06T13:38:18;6.68;;;5.60;;
77864;SDS011;67061;48.524;9.040;2023-04-06T13:40:45;5.70;;;5.00;;
77864;SDS011;67061;48.524;9.040;2023-04-06T13:43:13;6.30;;;4.85;;
77864;SDS011;67061;48.524;9.040;2023-04-06T13:45:40;6.07;;;5.07;;
77864;SDS011;67061;48.524;9.040;2023-04-06T13:48:08;6.22;;;5.25;;
77864;SDS011;67061;48.524;9.040;2023-04-06T13:50:35;7.25;;;5.65;;
77864;SDS011;67061;48.524;9.040;2023-04-06T13:53:02;7.55;;;4.60;;
77864;SDS011;67061;48.524;9.040;2023-04-06T13:55:29;6.57;;;5.03;;
77864;SDS011;67061;48.524;9.040;2023-04-06T13:57:56;5.93;;;5.15;;
77864;SDS011;67061;48.524;9.040;2023-04-06T14:00:23;6.93;;;5.20;;
77864;SDS011;67061;48.524;9.040;2023-04-06T14:02:50;6.40;;;4.97;;
77864;SDS011;67061;48.524;9.040;2023-04-06T14:07:48;7.20;;;5.05;;
77864;SDS011;67061;48.524;9.040;2023-04-06T14:10:15;6.60;;;4.90;;
77864;SDS011;67061;48.524;9.040;2023-04-06T14:12:42;5.95;;;3.90;;
77864;SDS011;67061;48.524;9.040;2023-04-06T14:15:10;7.43;;;5.28;;
77864;SDS011;67061;48.524;9.040;2023-04-06T14:17:38;7.30;;;5.15;;
77864;SDS011;67061;48.524;9.040;2023-04-06T14:20:05;5.55;;;3.90;;
77864;SDS011;67061;48.524;9.040;2023-04-06T14:22:40;7.03;;;5.40;;
77864;SDS011;67061;48.524;9.040;2023-04-06T14:25:08;6.47;;;5.80;;
77864;SDS011;67061;48.524;9.040;2023-04-06T14:27:36;6.15;;;4.88;;
77864;SDS011;67061;48.524;9.040;2023-04-06T14:30:03;7.45;;;5.70;;
77864;SDS011;67061;48.524;9.040;2023-04-06T14:32:30;7.05;;;5.82;;
77864;SDS011;67061;48.524;9.040;2023-04-06T14:34:57;6.65;;;5.35;;
77864;SDS011;67061;48.524;9.040;2023-04-06T14:37:24;5.72;;;5.13;;
77864;SDS011;67061;48.524;9.040;2023-04-06T14:39:52;7.00;;;5.25;;
77864;SDS011;67061;48.524;9.040;2023-04-06T14:42:19;6.82;;;5.82;;
77864;SDS011;67061;48.524;9.040;2023-04-06T14:44:46;7.57;;;5.30;;
77864;SDS011;67061;48.524;9.040;2023-04-06T14:47:14;8.23;;;4.88;;
77864;SDS011;67061;48.524;9.040;2023-04-06T14:49:45;6.03;;;5.22;;